Time;durP1;ratioP1;P1;durP2;ratioP2;P2;SDS_P1;SDS_P2;PMS_P1;PMS_P2;Temp;Humidity;BMP_temperature;BMP_pressure;BME280_temperature;BME280_humidity;BME280_pressure;Samples;Min_cycle;Max_cycle;Signal;HPM_P1;HPM_P2
2023/06/16 00:02:17;;;;;;;8.50;7.70;;;19.00;99.90;;;19.23;85.74;94462.16;5030562;28;20488;-57
2023/06/16 00:04:44;;;;;;;7.90;7.13;;;19.00;99.90;;;19.24;86.17;94457.66;5029877;28;20465;-59
2023/06/16 00:07:13;;;;;;;8.37;6.87;;;19.00;99.90;;;19.23;85.75;94450.69;5031863;28;20511;-59
2023/06/16 00:09:40;;;;;;;8.40;6.80;;;18.90;99.90;;;19.23;85.63;94450.69;5036202;28;20534;-56
2023/06/16 00:12:08;;;;;;;7.00;6.30;;;18.90;99.90;;;19.22;85.60;94457.84;5031150;28;20503;-56
2023/06/16 00:14:35;;;;;;;7.90;6.67;;;18.90;99.90;;;19.20;85.46;94457.25;5031275;28;20476;-57
2023/06/16 00:17:05;;;;;;;7.00;6.30;;;18.90;99.90;;;19.19;85.61;94452.94;5033209;28;20461;-54
2023/06/16 00:19:33;;;;;;;6.93;6.40;;;18.90;99.90;;;19.19;85.67;94452.13;5034250;28;20476;-55
2023/06/16 00:22:02;;;;;;;7.87;6.93;;;18.90;99.90;;;19.18;85.66;94448.63;5035149;28;20510;-56
2023/06/16 00:24:32;;;;;;;10.73;7.13;;;18.90;99.90;;;19.17;85.74;94446.97;5029074;28;20915;-58
2023/06/16 00:26:59;;;;;;;8.00;7.20;;;18.90;99.90;;;19.17;86.09;94446.97;5035830;28;20487;-56
2023/06/16 00:29:26;;;;;;;9.50;6.93;;;18.90;99.90;;;19.17;85.82;94442.47;5032861;28;21040;-56
2023/06/16 00:31:55;;;;;;;7.20;6.57;;;18.90;99.90;;;19.16;85.95;94435.50;5036872;28;20460;-57
2023/06/16 00:34:22;;;;;;;8.43;6.90;;;18.90;99.90;;;19.16;85.40;94442.66;5031102;28;20471;-53
2023/06/16 00:36:49;;;;;;;11.83;6.70;;;18.90;99.90;;;19.14;85.48;94436.72;5036912;28;20495;-58
2023/06/16 00:39:17;;;;;;;8.23;5.90;;;18.90;99.90;;;19.12;85.67;94436.13;5031346;28;20481;-56
2023/06/16 00:41:45;;;;;;;6.83;6.30;;;18.90;99.90;;;19.09;85.77;94440.00;5036965;28;21446;-56
2023/06/16 00:44:12;;;;;;;8.20;6.47;;;18.80;99.90;;;19.09;86.06;94441.84;5031484;28;21020;-58
2023/06/16 00:46:40;;;;;;;5.73;5.30;;;18.80;99.90;;;19.09;85.82;94441.84;5032429;28;20459;-54
2023/06/16 00:49:07;;;;;;;6.27;5.70;;;18.80;99.90;;;19.07;85.10;94436.72;5031602;28;20476;-59
2023/06/16 00:51:34;;;;;;;7.60;7.00;;;18.80;99.90;;;19.04;85.40;94433.63;5037607;28;20447;-54
2023/06/16 00:54:02;;;;;;;8.87;7.33;;;18.80;99.90;;;19.02;85.34;94430.34;5032247;28;21033;-57
2023/06/16 00:56:29;;;;;;;6.70;6.10;;;18.80;99.90;;;18.97;85.51;94429.09;5042038;28;20454;-57
2023/06/16 00:58:58;;;;;;;7.47;6.67;;;18.80;99.90;;;18.96;85.61;94424.81;5031148;28;20477;-54
2023/06/16 01:01:28;;;;;;;7.40;6.67;;;18.70;99.90;;;18.95;85.75;94431.16;5035925;28;20456;-54
2023/06/16 01:03:55;;;;;;;6.70;6.10;;;18.70;99.90;;;18.96;85.98;94423.97;5029594;28;20480;-56
2023/06/16 01:06:33;;;;;;;7.47;6.77;;;18.70;99.90;;;18.95;85.62;94419.69;5036847;28;20464;-57
2023/06/16 01:09:05;;;;;;;7.30;6.70;;;18.70;99.90;;;18.95;85.98;94409.84;5034413;28;20852;-58
2023/06/16 01:11:37;;;;;;;9.70;7.43;;;18.70;99.90;;;18.97;85.94;94412.31;5033485;28;20444;-59
2023/06/16 01:14:14;;;;;;;7.53;6.83;;;18.70;99.90;;;18.96;86.28;94419.50;5030133;28;20516;-57
2023/06/16 01:16:41;;;;;;;7.80;6.93;;;18.70;99.90;;;18.95;85.91;94407.19;5031348;28;20475;-58
2023/06/16 01:19:10;;;;;;;6.40;5.90;;;18.70;99.90;;;18.93;85.92;94406.56;5032210;28;20552;-58
2023/06/16 01:21:44;;;;;;;5.83;5.33;;;18.70;99.90;;;18.92;85.93;94401.44;5033598;28;20444;-58
2023/06/16 01:24:14;;;;;;;7.97;5.30;;;18.70;99.90;;;18.92;85.72;94406.78;5032321;28;21373;-54
2023/06/16 01:26:45;;;;;;;6.30;5.80;;;18.60;99.90;;;18.93;85.94;94403.06;5030195;28;20441;-57
2023/06/16 01:29:12;;;;;;;6.10;5.60;;;18.70;99.90;;;18.93;85.76;94403.91;5031251;28;20483;-58
2023/06/16 01:31:40;;;;;;;5.50;4.93;;;18.70;99.90;;;18.94;86.19;94400.19;5031100;28;20461;-58
2023/06/16 01:34:08;;;;;;;6.03;5.43;;;18.70;99.90;;;18.93;85.78;94398.56;5033638;28;20493;-55
2023/06/16 01:36:36;;;;;;;6.83;5.10;;;18.70;99.90;;;18.93;86.13;94403.91;5030341;28;20456;-54
2023/06/16 01:39:04;;;;;;;5.20;4.80;;;18.70;99.90;;;18.91;85.62;94397.94;5030483;28;20488;-57
2023/06/16 01:41:32;;;;;;;5.60;5.20;;;18.70;99.90;;;18.90;85.67;94393.66;5029928;28;21185;-55
2023/06/16 01:44:00;;;;;;;6.40;5.37;;;18.60;99.90;;;18.91;86.08;94392.59;5030708;28;20535;-56
2023/06/16 01:46:27;;;;;;;6.07;5.60;;;18.60;99.90;;;18.93;85.75;94401.25;5034424;28;20457;-58
2023/06/16 01:48:54;;;;;;;6.23;5.77;;;18.60;99.90;;;18.90;86.32;94398.97;5029472;28;20473;-56
2023/06/16 01:51:22;;;;;;;6.03;5.60;;;18.70;99.90;;;18.93;86.64;94398.56;5035078;28;20449;-57
2023/06/16 01:53:50;;;;;;;5.43;5.03;;;18.60;99.90;;;18.93;86.72;94397.72;5030476;28;20452;-55
2023/06/16 01:56:17;;;;;;;4.97;4.57;;;18.60;99.90;;;18.94;86.38;94400.19;5034016;28;20448;-56
2023/06/16 01:58:46;;;;;;;6.60;6.00;;;18.70;99.90;;;18.94;86.56;94394.88;5028568;28;20464;-58
2023/06/16 02:01:18;;;;;;;5.30;4.90;;;18.70;99.90;;;18.95;86.34;94390.38;5035061;28;20548;-57
2023/06/16 02:03:48;;;;;;;7.53;5.30;;;18.70;99.90;;;18.94;86.04;94386.88;5028638;28;20500;-58
2023/06/16 02:06:18;;;;;;;5.20;4.80;;;18.70;99.90;;;18.94;86.15;94392.19;5034319;28;20448;-54
2023/06/16 02:08:46;;;;;;;11.50;5.70;;;18.70;99.90;;;18.95;86.47;94391.19;5029390;28;20488;-58
2023/06/16 02:11:14;;;;;;;5.80;5.30;;;18.70;99.90;;;18.94;85.96;94389.53;5029090;28;20464;-57
2023/06/16 02:13:41;;;;;;;7.37;5.70;;;18.70;99.90;;;18.95;86.24;94396.53;5027487;28;20449;-57
2023/06/16 02:16:10;;;;;;;11.80;6.10;;;18.70;99.90;;;18.95;86.32;94391.19;5033428;28;20452;-55
2023/06/16 02:18:39;;;;;;;10.03;5.63;;;18.70;99.90;;;18.95;86.04;94399.19;5033048;28;20488;-57
2023/06/16 02:21:06;;;;;;;5.50;5.00;;;18.70;99.90;;;18.96;86.44;94400.84;5030243;28;20461;-57
2023/06/16 02:23:33;;;;;;;5.77;5.33;;;18.70;99.90;;;18.96;85.71;94400.84;5032455;28;20584;-58
2023/06/16 02:26:01;;;;;;;5.53;5.03;;;18.70;99.90;;;18.96;86.18;94402.66;5030712;28;21289;-54
2023/06/16 02:28:28;;;;;;;6.57;5.80;;;18.70;99.90;;;18.96;86.05;94402.66;5032429;28;20452;-53
2023/06/16 02:30:55;;;;;;;6.07;5.57;;;18.70;99.90;;;18.96;85.89;94400.00;5031118;28;20473;-53
2023/06/16 02:33:24;;;;;;;6.30;5.80;;;18.70;99.90;;;18.96;86.12;94402.66;5032554;28;20887;-56
2023/06/16 02:35:51;;;;;;;7.07;5.90;;;18.70;99.90;;;18.96;86.08;94400.84;5034286;28;20464;-55
2023/06/16 02:38:18;;;;;;;6.00;5.40;;;18.70;99.90;;;18.96;86.35;94392.00;5028306;28;20957;-55
2023/06/16 02:40:46;;;;;;;5.77;5.30;;;18.70;99.90;;;18.96;86.49;94398.16;5033315;28;20485;-57
2023/06/16 02:43:13;;;;;;;9.57;5.43;;;18.70;99.90;;;18.98;86.26;94400.63;5028603;28;20599;-54
2023/06/16 02:45:41;;;;;;;9.93;5.97;;;18.70;99.90;;;18.97;86.55;94399.78;5031838;28;20534;-54
2023/06/16 02:48:08;;;;;;;7.03;5.30;;;18.70;99.90;;;18.97;86.29;94389.13;5029069;28;20456;-57
2023/06/16 02:50:37;;;;;;;7.83;5.40;;;18.70;99.90;;;18.97;85.98;94389.13;5031913;28;20997;-56
2023/06/16 02:53:05;;;;;;;6.13;5.20;;;18.70;99.90;;;18.96;86.20;94387.50;5030916;28;20977;-57
2023/06/16 02:55:32;;;;;;;6.00;5.50;;;18.70;99.90;;;18.97;86.36;94389.13;5032060;28;20472;-59
2023/06/16 02:58:00;;;;;;;5.80;5.23;;;18.70;99.90;;;18.97;86.05;94405.13;5028736;28;20510;-56
2023/06/16 03:00:27;;;;;;;6.60;6.00;;;18.70;99.90;;;18.97;86.29;94394.47;5025518;28;20484;-57
2023/06/16 03:02:54;;;;;;;7.47;6.10;;;18.70;99.90;;;18.98;86.24;94389.97;5031720;28;20945;-54
2023/06/16 03:05:23;;;;;;;6.23;5.60;;;18.70;99.90;;;18.98;86.27;94390.78;5027941;28;20477;-56
2023/06/16 03:07:52;;;;;;;6.63;6.00;;;18.70;99.90;;;18.97;86.28;94383.81;5032573;28;20455;-56
2023/06/16 03:10:19;;;;;;;8.30;6.33;;;18.70;99.90;;;18.97;86.36;94389.13;5027273;28;20607;-53
2023/06/16 03:12:46;;;;;;;11.70;6.30;;;18.70;99.90;;;18.97;86.67;94383.00;5028321;28;20453;-62
2023/06/16 03:15:15;;;;;;;8.50;5.80;;;18.70;99.90;;;18.98;86.05;94384.66;5026735;28;20519;-58
2023/06/16 03:17:43;;;;;;;8.83;7.20;;;18.70;99.90;;;18.97;86.69;94389.13;5024287;28;20546;-55
2023/06/16 03:20:11;;;;;;;7.07;6.47;;;18.70;99.90;;;18.98;86.77;94390.78;5027285;28;20975;-58
2023/06/16 03:22:39;;;;;;;6.70;6.10;;;18.70;99.90;;;18.97;86.42;94391.78;5032042;28;20496;-58
2023/06/16 03:25:10;;;;;;;7.17;5.40;;;18.70;99.90;;;18.99;86.51;94387.09;5028285;28;21047;-61
2023/06/16 03:27:40;;;;;;;7.67;5.83;;;18.70;99.90;;;19.00;86.10;94382.59;5030703;28;21042;-58
2023/06/16 03:30:09;;;;;;;7.47;6.17;;;18.70;99.90;;;18.99;86.52;94384.44;5030267;28;20953;-55
2023/06/16 03:32:37;;;;;;;6.27;5.77;;;18.70;99.90;;;19.01;86.42;94386.06;5034316;28;20452;-55
2023/06/16 03:35:06;;;;;;;6.77;6.20;;;18.70;99.90;;;19.02;86.82;94385.03;5030683;28;20479;-53
2023/06/16 03:37:34;;;;;;;6.53;5.90;;;18.70;99.90;;;19.01;86.04;94373.56;5031982;28;20541;-53
2023/06/16 03:40:05;;;;;;;7.07;6.37;;;18.70;99.90;;;19.02;85.71;94380.53;5034514;28;20472;-58
2023/06/16 03:42:34;;;;;;;9.53;6.10;;;18.70;99.90;;;19.03;86.03;94370.69;4984098;28;1253820;-57
2023/06/16 03:45:03;;;;;;;6.30;5.80;;;18.80;99.90;;;19.01;85.88;94370.91;5037937;28;20595;-58
2023/06/16 03:47:30;;;;;;;7.23;5.60;;;18.70;99.90;;;19.01;85.80;94368.25;5035087;28;20538;-57
2023/06/16 03:49:58;;;;;;;5.03;4.67;;;18.80;99.90;;;18.99;85.47;94371.13;5031951;28;20837;-54
2023/06/16 03:52:25;;;;;;;5.93;5.53;;;18.80;99.90;;;19.01;85.63;94370.06;5028122;28;20783;-59
2023/06/16 03:54:52;;;;;;;7.73;5.00;;;18.70;99.90;;;18.99;85.79;94363.13;5030775;28;21035;-55
2023/06/16 03:57:20;;;;;;;7.70;5.77;;;18.70;99.90;;;19.01;85.76;94367.41;5029810;28;20456;-58
2023/06/16 03:59:48;;;;;;;5.87;5.33;;;18.70;99.90;;;19.02;85.92;94364.53;5033842;28;20538;-59
2023/06/16 04:02:16;;;;;;;15.00;5.13;;;18.80;99.90;;;19.03;85.65;94360.84;5030537;28;20456;-55
2023/06/16 04:04:45;;;;;;;9.07;5.90;;;18.80;99.90;;;19.05;86.01;94358.78;5028385;28;21080;-56
2023/06/16 04:07:12;;;;;;;11.10;5.20;;;18.80;99.90;;;19.08;86.35;94357.56;5026143;28;21013;-58
2023/06/16 04:09:39;;;;;;;8.00;6.00;;;18.80;99.90;;;19.10;86.10;94355.50;5031119;28;20910;-57
2023/06/16 04:12:08;;;;;;;11.20;5.50;;;18.80;99.90;;;19.12;85.98;94356.16;5029810;28;21047;-59
2023/06/16 04:14:35;;;;;;;6.07;5.40;;;18.90;99.90;;;19.14;85.69;94356.75;5027135;28;20475;-59
2023/06/16 04:17:05;;;;;;;9.43;5.80;;;18.90;99.90;;;19.15;85.16;94364.53;5031531;28;20475;-59
2023/06/16 04:19:32;;;;;;;20.17;8.57;;;18.90;99.90;;;19.16;86.07;94360.88;5029658;28;20473;-59
2023/06/16 04:21:59;;;;;;;17.87;8.70;;;18.90;99.90;;;19.19;85.23;94354.28;5031657;28;20464;-56
2023/06/16 04:24:27;;;;;;;13.87;6.70;;;18.90;99.90;;;19.21;85.30;94357.59;5025187;28;20523;-56
2023/06/16 04:26:58;;;;;;;7.47;6.60;;;18.90;99.90;;;19.23;85.46;94360.84;5026977;28;20468;-59
2023/06/16 04:29:26;;;;;;;11.03;8.40;;;18.90;99.90;;;19.24;85.47;94357.16;5030367;28;20487;-58
2023/06/16 04:31:57;;;;;;;13.30;8.53;;;18.90;99.90;;;19.25;85.37;94350.78;5033153;28;20460;-59
2023/06/16 04:34:26;;;;;;;10.80;8.37;;;19.00;99.90;;;19.26;85.63;94354.28;5036985;28;20532;-60
2023/06/16 04:36:57;;;;;;;9.37;8.00;;;19.00;99.90;;;19.27;85.46;94362.09;5032298;28;20460;-59
2023/06/16 04:39:24;;;;;;;9.80;8.80;;;19.00;99.90;;;19.28;85.36;94363.72;5031947;28;20480;-59
2023/06/16 04:41:52;;;;;;;11.40;9.43;;;19.00;99.90;;;19.29;85.37;94362.69;5031019;28;20961;-58
2023/06/16 04:44:19;;;;;;;13.67;8.27;;;19.00;99.90;;;19.31;85.61;94360.63;5032477;28;20496;-59
2023/06/16 04:46:47;;;;;;;11.40;9.10;;;19.00;99.90;;;19.33;85.93;94361.25;5028902;28;20484;-56
2023/06/16 04:49:14;;;;;;;12.40;9.57;;;19.00;99.90;;;19.36;85.30;94362.69;5038389;28;20544;-56
2023/06/16 04:51:44;;;;;;;12.77;8.80;;;19.10;99.90;;;19.38;85.99;94362.47;5030293;28;20941;-61
2023/06/16 04:54:11;;;;;;;11.87;9.77;;;19.10;99.90;;;19.39;85.41;94364.13;5032124;28;20472;-55
2023/06/16 04:56:38;;;;;;;17.07;11.20;;;19.10;99.90;;;19.42;85.74;94364.53;5032812;28;20559;-57
2023/06/16 04:59:05;;;;;;;11.80;9.30;;;19.10;99.90;;;19.45;85.73;94363.28;5034458;28;20492;-57
2023/06/16 05:01:32;;;;;;;11.70;9.23;;;19.20;99.90;;;19.47;85.33;94362.06;5033490;28;20515;-59
2023/06/16 05:04:01;;;;;;;10.40;9.30;;;19.20;99.90;;;19.49;85.17;94362.69;5036003;28;20496;-57
2023/06/16 05:06:28;;;;;;;15.23;8.87;;;19.20;99.90;;;19.51;85.54;94367.81;5033663;28;20457;-59
2023/06/16 05:08:57;;;;;;;11.03;8.80;;;19.30;99.90;;;19.53;85.10;94363.06;5033673;28;20469;-58
2023/06/16 05:11:25;;;;;;;10.10;8.90;;;19.30;99.90;;;19.57;85.14;94366.16;5031944;28;20453;-55
2023/06/16 05:13:52;;;;;;;12.43;10.30;;;19.30;99.90;;;19.58;85.00;94365.94;5033360;28;20486;-55
2023/06/16 05:16:19;;;;;;;10.40;8.53;;;19.30;99.90;;;19.60;85.06;94361.22;5033515;28;20455;-56
2023/06/16 05:18:46;;;;;;;12.53;7.60;;;19.30;99.90;;;19.57;83.64;94376.84;5033917;28;20460;-56
2023/06/16 05:21:14;;;;;;;17.70;9.33;;;19.30;99.90;;;19.49;83.32;94364.53;5034962;28;20456;-55
2023/06/16 05:23:41;;;;;;;9.70;8.80;;;19.30;99.90;;;19.45;83.52;94363.28;5032082;28;20666;-56
2023/06/16 05:26:10;;;;;;;10.20;9.30;;;19.20;99.90;;;19.44;83.47;94361.66;5033796;28;20980;-56
2023/06/16 05:28:37;;;;;;;10.23;9.10;;;19.20;99.90;;;19.44;83.74;94366.97;5030187;28;20873;-54
2023/06/16 05:31:05;;;;;;;10.20;9.30;;;19.20;99.90;;;19.46;83.92;94370.28;5032214;28;20452;-55
2023/06/16 05:33:32;;;;;;;11.60;9.73;;;19.20;99.90;;;19.48;83.57;94368.22;5030364;28;20444;-56
2023/06/16 05:35:59;;;;;;;10.73;9.40;;;19.20;99.90;;;19.51;83.19;94365.13;5033590;28;20456;-53
2023/06/16 05:38:27;;;;;;;9.83;8.93;;;19.30;99.90;;;19.52;82.73;94369.44;5030727;28;20461;-56
2023/06/16 05:40:54;;;;;;;11.93;8.87;;;19.30;99.90;;;19.51;83.04;94368.63;5031666;28;20476;-57
2023/06/16 05:43:22;;;;;;;12.17;9.40;;;19.20;99.90;;;19.50;83.04;94366.16;5029860;28;20507;-57
2023/06/16 05:45:50;;;;;;;16.80;9.23;;;19.30;99.90;;;19.48;82.88;94363.69;5033912;28;20472;-57
2023/06/16 05:48:17;;;;;;;14.83;10.00;;;19.30;99.90;;;19.49;83.17;94364.53;5031454;28;20456;-57
2023/06/16 05:50:44;;;;;;;12.07;9.13;;;19.30;99.90;;;19.52;82.85;94369.44;5039001;28;21320;-54
2023/06/16 05:53:12;;;;;;;16.60;9.73;;;19.30;99.90;;;19.56;83.00;94368.00;5029447;28;20453;-55
2023/06/16 05:55:39;;;;;;;11.17;9.70;;;19.30;99.90;;;19.58;82.63;94368.63;5035219;28;20553;-57
2023/06/16 05:58:07;;;;;;;9.13;8.33;;;19.30;99.90;;;19.58;82.52;94376.63;5028792;28;20521;-55
2023/06/16 06:00:36;;;;;;;12.60;10.23;;;19.30;99.90;;;19.57;82.68;94379.50;5033875;28;20467;-55
2023/06/16 06:03:04;;;;;;;10.40;9.23;;;19.30;99.90;;;19.58;82.65;94381.97;5033092;28;20448;-57
2023/06/16 06:05:31;;;;;;;10.33;9.33;;;19.30;99.90;;;19.60;82.94;94379.91;5030724;28;20472;-56
2023/06/16 06:07:58;;;;;;;10.50;9.00;;;19.30;99.90;;;19.68;83.04;94378.84;5027469;28;20448;-54
2023/06/16 06:10:25;;;;;;;15.13;9.43;;;19.40;99.90;;;19.75;82.70;94378.84;5032676;28;20531;-53
2023/06/16 06:12:53;;;;;;;11.50;9.70;;;19.40;99.90;;;19.81;82.63;94380.69;5029577;28;20484;-55
2023/06/16 06:15:20;;;;;;;10.43;9.43;;;19.50;99.90;;;19.93;82.94;94379.03;5028033;28;20492;-54
2023/06/16 06:17:49;;;;;;;13.00;8.87;;;19.60;99.90;;;20.06;82.51;94381.66;5034247;28;20456;-54
2023/06/16 06:20:16;;;;;;;11.30;9.47;;;19.70;99.90;;;20.20;82.32;94378.91;5032087;28;21022;-53
2023/06/16 06:22:44;;;;;;;13.10;9.90;;;19.90;99.90;;;20.34;82.28;94377.84;5031549;28;20466;-55
2023/06/16 06:25:13;;;;;;;10.23;9.20;;;20.00;99.90;;;20.50;82.12;94373.88;5033080;28;20504;-56
2023/06/16 06:27:40;;;;;;;11.37;9.60;;;20.20;99.90;;;20.67;82.37;94376.88;5029393;28;20459;-56
2023/06/16 06:30:08;;;;;;;11.90;10.57;;;20.30;99.90;;;20.80;80.89;94369.81;5029323;28;20472;-56
2023/06/16 06:32:37;;;;;;;11.70;9.30;;;20.50;99.90;;;20.94;80.39;94377.56;5030371;28;20461;-55
2023/06/16 06:35:06;;;;;;;10.93;9.10;;;20.60;99.90;;;21.03;80.49;94380.75;5030736;28;21016;-57
2023/06/16 06:37:34;;;;;;;17.13;10.70;;;20.70;99.90;;;21.08;79.68;94372.91;5031157;28;20453;-56
2023/06/16 06:40:01;;;;;;;10.27;9.17;;;20.80;99.90;;;21.10;79.71;94376.19;5029238;28;20530;-56
2023/06/16 06:42:28;;;;;;;9.90;8.90;;;20.80;99.90;;;21.10;79.68;94370.84;5026664;28;20464;-58
2023/06/16 06:44:55;;;;;;;11.93;10.63;;;20.80;99.90;;;21.10;79.37;94368.16;5027228;28;21005;-57
2023/06/16 06:47:23;;;;;;;10.43;9.30;;;20.80;99.90;;;21.09;79.40;94363.84;5027729;28;20532;-57
2023/06/16 06:49:50;;;;;;;8.93;8.07;;;20.80;99.90;;;21.11;79.30;94364.44;5035148;28;22190;-57
2023/06/16 06:52:19;;;;;;;8.80;8.00;;;20.80;99.90;;;21.10;79.27;94360.16;5028508;28;20791;-55
2023/06/16 06:54:46;;;;;;;9.50;7.43;;;20.80;99.90;;;21.06;78.90;94361.59;5028083;28;20461;-58
2023/06/16 06:57:14;;;;;;;9.90;8.20;;;20.80;99.90;;;21.04;78.79;94357.53;5035589;28;20925;-58
2023/06/16 06:59:41;;;;;;;11.50;7.77;;;20.80;99.90;;;21.03;78.64;94351.34;5029621;28;20479;-57
2023/06/16 07:02:09;;;;;;;19.03;7.93;;;20.80;99.90;;;21.07;78.65;94360.59;5028004;28;20468;-58
2023/06/16 07:04:38;;;;;;;11.10;7.73;;;20.80;99.90;;;21.14;78.13;94360.53;5029219;28;20503;-54
2023/06/16 07:07:07;;;;;;;8.97;6.97;;;20.80;99.90;;;21.25;77.71;94367.81;5030825;28;20850;-56
2023/06/16 07:09:36;;;;;;;12.37;8.33;;;20.90;99.90;;;21.35;77.32;94362.00;5031267;28;20552;-55
2023/06/16 07:12:03;;;;;;;8.30;7.50;;;21.00;99.90;;;21.44;77.08;94363.38;5031211;28;20444;-56
2023/06/16 07:14:30;;;;;;;9.73;8.83;;;21.10;99.90;;;21.55;77.69;94361.84;5034231;28;20464;-56
2023/06/16 07:16:58;;;;;;;9.23;8.20;;;21.20;99.90;;;21.68;77.24;94358.22;5029872;28;20474;-56
2023/06/16 07:19:26;;;;;;;7.63;6.93;;;21.30;99.90;;;21.81;75.75;94357.25;5032095;28;20471;-55
2023/06/16 07:21:54;;;;;;;12.30;8.90;;;21.40;99.90;;;21.82;76.15;94358.91;5030421;28;20463;-58
2023/06/16 07:24:21;;;;;;;8.83;7.33;;;21.50;99.90;;;21.78;75.37;94355.88;5031080;28;20599;-57
2023/06/16 07:26:50;;;;;;;10.47;8.40;;;21.50;99.90;;;21.77;74.91;94362.25;5028193;28;20536;-57
2023/06/16 07:29:17;;;;;;;12.07;7.63;;;21.50;99.90;;;21.77;75.20;94361.44;5028668;28;20485;-54
2023/06/16 07:31:45;;;;;;;11.30;8.20;;;21.50;99.90;;;21.76;74.88;94368.63;5028700;28;20896;-59
2023/06/16 07:34:12;;;;;;;13.83;8.07;;;21.50;99.90;;;21.74;74.96;94368.03;5029419;28;20460;-55
2023/06/16 07:36:39;;;;;;;11.27;9.37;;;21.50;99.90;;;21.75;74.78;94372.38;5026111;28;20467;-60
2023/06/16 07:39:06;;;;;;;11.93;9.87;;;21.50;99.90;;;21.79;74.57;94368.19;5032691;28;20556;-56
2023/06/16 07:41:34;;;;;;;13.13;11.20;;;21.50;99.90;;;21.88;74.26;94375.94;5027533;28;20908;-56
2023/06/16 07:44:02;;;;;;;14.20;9.40;;;21.60;99.90;;;21.96;74.16;94371.09;5028663;28;20499;-59
2023/06/16 07:46:30;;;;;;;14.20;10.33;;;21.60;99.90;;;22.02;73.97;94374.75;5028155;28;20456;-58
2023/06/16 07:48:57;;;;;;;12.07;10.00;;;21.70;99.90;;;21.99;73.59;94372.53;5028494;28;21033;-58
2023/06/16 07:51:25;;;;;;;11.63;10.43;;;21.60;99.90;;;21.94;73.03;94391.13;5031095;28;20563;-58
2023/06/16 07:53:52;;;;;;;14.37;10.57;;;21.60;99.90;;;21.93;72.94;94373.41;5029433;28;21016;-55
2023/06/16 07:56:19;;;;;;;11.30;10.17;;;21.60;99.90;;;21.94;73.01;94385.78;5036003;28;20459;-56
2023/06/16 07:58:46;;;;;;;12.80;11.10;;;21.60;99.90;;;21.96;72.11;94367.63;5027356;28;20522;-57
2023/06/16 08:01:16;;;;;;;18.53;10.77;;;21.60;99.90;;;22.06;72.19;94373.28;5032910;28;20460;-58
2023/06/16 08:03:46;;;;;;;11.30;10.10;;;21.70;99.90;;;22.18;71.35;94370.66;5031762;28;20456;-56
2023/06/16 08:06:13;;;;;;;13.50;10.40;;;21.80;99.90;;;22.30;71.50;94374.25;5037454;28;20509;-56
2023/06/16 08:08:40;;;;;;;13.37;11.20;;;22.00;99.90;;;22.42;70.48;94377.00;5031913;28;20886;-55
2023/06/16 08:11:08;;;;;;;15.97;11.10;;;22.00;99.90;;;22.46;70.77;94372.78;5035750;28;20463;-54
2023/06/16 08:13:35;;;;;;;11.80;10.60;;;22.10;99.90;;;22.53;70.74;94378.09;5032198;28;20539;-57
2023/06/16 08:16:02;;;;;;;16.63;10.57;;;22.20;99.90;;;22.54;69.02;94377.03;5037696;28;20456;-55
2023/06/16 08:18:31;;;;;;;13.53;10.23;;;22.20;99.90;;;22.53;69.63;94381.59;5032477;28;20459;-58
2023/06/16 08:20:58;;;;;;;11.93;10.70;;;22.20;99.90;;;22.48;68.90;94380.63;5034847;28;20452;-55
2023/06/16 08:23:25;;;;;;;12.57;10.77;;;22.20;99.90;;;22.41;68.63;94380.72;5029669;28;21199;-55
2023/06/16 08:25:54;;;;;;;13.93;12.30;;;22.10;99.90;;;22.30;69.25;94379.59;5036408;28;20923;-58
2023/06/16 08:28:22;;;;;;;12.80;11.50;;;22.10;99.90;;;22.23;68.72;94378.00;5034027;28;20455;-53
2023/06/16 08:30:49;;;;;;;13.77;12.30;;;22.00;99.90;;;22.13;69.47;94376.69;5033374;28;20475;-58
2023/06/16 08:33:16;;;;;;;13.60;12.20;;;21.90;99.90;;;22.11;69.77;94383.31;5034638;28;20993;-55
2023/06/16 08:35:45;;;;;;;15.10;13.60;;;21.90;99.90;;;22.10;69.24;94385.16;5033485;28;20870;-58
2023/06/16 08:38:12;;;;;;;22.47;13.90;;;21.80;99.90;;;22.12;69.42;94375.06;5036591;28;20456;-53
2023/06/16 08:40:40;;;;;;;17.70;14.70;;;21.80;99.90;;;22.09;69.91;94383.53;5033312;28;20518;-60
2023/06/16 08:43:07;;;;;;;20.53;14.27;;;21.80;99.90;;;22.06;69.97;94383.16;5031574;28;20453;-55
2023/06/16 08:45:35;;;;;;;19.70;14.37;;;21.80;99.90;;;22.04;70.25;94383.38;5029660;28;20492;-56
2023/06/16 08:48:04;;;;;;;23.50;13.67;;;21.80;99.90;;;22.05;70.08;94379.66;5032709;28;20539;-58
2023/06/16 08:50:32;;;;;;;15.00;13.37;;;21.70;99.90;;;22.06;69.35;94378.63;5033536;28;21070;-57
2023/06/16 08:53:01;;;;;;;17.80;13.47;;;21.80;99.90;;;22.12;69.85;94376.91;5034150;28;20460;-59
2023/06/16 08:55:29;;;;;;;20.07;13.97;;;21.80;99.90;;;22.18;69.46;94378.69;5036632;28;20468;-55
2023/06/16 08:57:56;;;;;;;16.43;13.07;;;21.80;99.90;;;22.28;69.45;94380.84;5032585;28;20974;-56
2023/06/16 09:00:23;;;;;;;15.77;12.87;;;21.90;99.90;;;22.38;68.99;94376.63;5033960;28;21001;-55
2023/06/16 09:02:53;;;;;;;23.30;14.43;;;22.00;99.90;;;22.50;67.89;94374.00;5035996;28;20547;-62
2023/06/16 09:05:20;;;;;;;14.83;12.03;;;22.10;99.90;;;22.64;68.57;94371.16;5032947;28;20573;-59
2023/06/16 09:07:49;;;;;;;18.67;11.80;;;22.20;99.90;;;22.74;67.87;94374.06;5034094;28;20974;-55
2023/06/16 09:10:18;;;;;;;15.43;12.23;;;22.40;99.90;;;22.83;67.73;94382.63;5035058;28;20476;-55
2023/06/16 09:12:45;;;;;;;20.23;12.50;;;22.50;99.90;;;22.89;67.35;94382.53;5032128;28;20509;-59
2023/06/16 09:15:13;;;;;;;18.50;13.20;;;22.50;99.90;;;22.96;66.96;94371.72;5033820;28;21015;-55
2023/06/16 09:17:41;;;;;;;17.20;12.17;;;22.60;99.90;;;23.03;66.25;94372.41;5032553;28;20459;-58
2023/06/16 09:20:15;;;;;;;14.50;12.67;;;22.70;99.90;;;23.10;66.94;94367.00;5034262;28;20560;-56
2023/06/16 09:22:42;;;;;;;15.93;12.10;;;22.80;99.90;;;23.21;67.32;94362.72;5033961;28;20452;-57
2023/06/16 09:25:12;;;;;;;16.30;12.30;;;22.80;99.90;;;23.32;66.70;94366.47;5033813;28;21014;-56
2023/06/16 09:27:45;;;;;;;15.03;11.97;;;22.90;99.90;;;23.39;66.08;94361.78;5034526;28;20460;-57
2023/06/16 09:30:14;;;;;;;13.27;11.97;;;23.00;99.90;;;23.40;65.40;94360.75;5036831;28;20898;-59
2023/06/16 09:32:42;;;;;;;14.97;13.40;;;23.00;99.90;;;23.44;66.43;94361.91;5033002;28;20452;-57
2023/06/16 09:35:19;;;;;;;15.20;12.03;;;23.10;99.90;;;23.54;65.75;94367.50;5034358;28;21162;-55
2023/06/16 09:37:47;;;;;;;13.33;12.03;;;23.20;99.90;;;23.63;65.76;94360.75;5035898;28;20448;-55
2023/06/16 09:40:15;;;;;;;15.07;12.70;;;23.30;99.90;;;23.84;65.14;94371.97;5034777;28;20519;-57
2023/06/16 09:42:45;;;;;;;13.57;12.00;;;23.50;99.90;;;23.94;63.67;94372.19;5035568;28;20988;-60
2023/06/16 09:45:14;;;;;;;18.90;12.57;;;23.50;99.90;;;24.02;64.68;94354.09;5029586;28;21079;-53
2023/06/16 09:47:45;;;;;;;14.23;12.53;;;23.60;99.90;;;24.08;63.37;94353.16;5036133;28;20459;-55
2023/06/16 09:50:13;;;;;;;13.67;12.27;;;23.70;99.90;;;24.10;63.19;94354.53;5032298;28;20460;-56
2023/06/16 09:52:42;;;;;;;12.67;11.23;;;23.70;99.90;;;24.19;63.21;94351.50;5034571;28;20628;-53
2023/06/16 09:55:10;;;;;;;11.10;10.00;;;23.80;99.90;;;24.28;63.14;94340.13;5031964;28;20571;-57
2023/06/16 09:57:38;;;;;;;14.30;12.07;;;23.90;99.90;;;24.36;63.38;94348.88;5034655;28;20569;-55
2023/06/16 10:00:13;;;;;;;12.90;11.60;;;24.00;99.90;;;24.40;63.09;94337.41;5033127;28;20485;-58
2023/06/16 10:02:41;;;;;;;11.67;10.57;;;24.00;99.90;;;24.44;63.04;94337.72;5032331;28;20451;-59
2023/06/16 10:05:10;;;;;;;12.43;11.27;;;24.10;99.90;;;24.45;62.75;94340.19;5031718;28;20496;-54
2023/06/16 10:07:38;;;;;;;12.83;11.50;;;24.10;99.90;;;24.50;62.17;94336.78;5032958;28;20459;-58
2023/06/16 10:10:08;;;;;;;16.27;9.33;;;24.10;99.90;;;24.48;59.11;94347.78;5032905;28;20903;-54
2023/06/16 10:12:35;;;;;;;11.67;10.50;;;24.10;99.90;;;24.45;60.71;94336.69;5029560;28;20479;-53
2023/06/16 10:15:03;;;;;;;20.30;11.37;;;24.10;99.90;;;24.41;60.74;94338.22;5031990;28;20517;-57
2023/06/16 10:17:33;;;;;;;16.17;11.93;;;24.10;99.90;;;24.45;61.50;94340.19;5031394;28;20467;-54